sensor_id;sensor_type;location;lat;lon;timestamp;temperature;humidity
61201;DHT22;47065;52.898;6.992;2022-09-27T00:00:36;10.10;99.90
61201;DHT22;47065;52.898;6.992;2022-09-27T00:03:02;10.10;99.90
61201;DHT22;47065;52.898;6.992;2022-09-27T00:05:28;10.10;99.90
61201;DHT22;47065;52.898;6.992;2022-09-27T00:07:55;10.10;99.90
61201;DHT22;47065;52.898;6.992;2022-09-27T00:10:20;10.10;99.90
61201;DHT22;47065;52.898;6.992;2022-09-27T00:12:48;10.00;99.90
61201;DHT22;47065;52.898;6.992;2022-09-27T00:15:14;10.00;99.90
61201;DHT22;47065;52.898;6.992;2022-09-27T00:17:41;10.00;99.90
61201;DHT22;47065;52.898;6.992;2022-09-27T00:20:07;9.90;99.90
61201;DHT22;47065;52.898;6.992;2022-09-27T00:22:34;9.90;99.90
61201;DHT22;47065;52.898;6.992;2022-09-27T00:25:00;9.90;99.90
61201;DHT22;47065;52.898;6.992;2022-09-27T00:27:26;9.80;99.90
61201;DHT22;47065;52.898;6.992;2022-09-27T00:29:52;9.80;99.90
61201;DHT22;47065;52.898;6.992;2022-09-27T00:32:18;9.80;99.90
61201;DHT22;47065;52.898;6.992;2022-09-27T00:34:44;9.70;99.90
61201;DHT22;47065;52.898;6.992;2022-09-27T00:37:10;9.60;99.90
61201;DHT22;47065;52.898;6.992;2022-09-27T00:39:37;9.60;99.90
61201;DHT22;47065;52.898;6.992;2022-09-27T00:42:09;9.60;99.90
61201;DHT22;47065;52.898;6.992;2022-09-27T00:47:29;9.50;99.90
61201;DHT22;47065;52.898;6.992;2022-09-27T00:50:37;9.40;99.90
61201;DHT22;47065;52.898;6.992;2022-09-27T00:55:42;9.40;99.90
61201;DHT22;47065;52.898;6.992;2022-09-27T00:58:11;9.40;99.90
61201;DHT22;47065;52.898;6.992;2022-09-27T01:00:41;9.40;99.90
61201;DHT22;47065;52.898;6.992;2022-09-27T01:03:08;9.40;99.90
61201;DHT22;47065;52.898;6.992;2022-09-27T01:05:37;9.30;99.90
61201;DHT22;47065;52.898;6.992;2022-09-27T01:08:03;9.30;99.90
61201;DHT22;47065;52.898;6.992;2022-09-27T01:10:35;9.40;99.90
61201;DHT22;47065;52.898;6.992;2022-09-27T01:13:13;9.40;99.90
61201;DHT22;47065;52.898;6.992;2022-09-27T01:15:54;9.30;99.90
61201;DHT22;47065;52.898;6.992;2022-09-27T01:18:39;9.40;99.90
61201;DHT22;47065;52.898;6.992;2022-09-27T01:24:00;9.40;99.90
61201;DHT22;47065;52.898;6.992;2022-09-27T01:34:54;9.50;99.90
61201;DHT22;47065;52.898;6.992;2022-09-27T01:37:58;9.40;99.90
61201;DHT22;47065;52.898;6.992;2022-09-27T01:41:03;9.50;99.90
61201;DHT22;47065;52.898;6.992;2022-09-27T01:43:45;9.40;99.90
61201;DHT22;47065;52.898;6.992;2022-09-27T01:46:21;9.40;99.90
61201;DHT22;47065;52.898;6.992;2022-09-27T01:48:49;9.40;99.90
61201;DHT22;47065;52.898;6.992;2022-09-27T01:51:29;9.40;99.90
61201;DHT22;47065;52.898;6.992;2022-09-27T01:54:25;9.40;99.90
61201;DHT22;47065;52.898;6.992;2022-09-27T01:57:00;9.50;99.90
61201;DHT22;47065;52.898;6.992;2022-09-27T01:59:31;9.40;99.90
61201;DHT22;47065;52.898;6.992;2022-09-27T02:02:03;9.40;99.90
61201;DHT22;47065;52.898;6.992;2022-09-27T02:04:40;9.40;99.90
61201;DHT22;47065;52.898;6.992;2022-09-27T02:07:32;9.40;99.90
61201;DHT22;47065;52.898;6.992;2022-09-27T02:10:02;9.40;99.90
61201;DHT22;47065;52.898;6.992;2022-09-27T02:12:41;9.40;99.90
61201;DHT22;47065;52.898;6.992;2022-09-27T02:15:13;9.40;99.90
61201;DHT22;47065;52.898;6.992;2022-09-27T02:20:34;9.40;99.90
61201;DHT22;47065;52.898;6.992;2022-09-27T02:28:44;9.40;99.90
61201;DHT22;47065;52.898;6.992;2022-09-27T02:31:12;9.40;99.90
61201;DHT22;47065;52.898;6.992;2022-09-27T02:33:46;9.40;99.90
61201;DHT22;47065;52.898;6.992;2022-09-27T02:36:14;9.30;99.90
61201;DHT22;47065;52.898;6.992;2022-09-27T02:38:43;9.40;99.90
61201;DHT22;47065;52.898;6.992;2022-09-27T02:41:20;9.30;99.90
61201;DHT22;47065;52.898;6.992;2022-09-27T02:44:06;9.40;99.90
61201;DHT22;47065;52.898;6.992;2022-09-27T02:50:13;9.40;99.90
61201;DHT22;47065;52.898;6.992;2022-09-27T02:56:00;9.40;99.90
61201;DHT22;47065;52.898;6.992;2022-09-27T03:04:44;9.30;99.90
61201;DHT22;47065;52.898;6.992;2022-09-27T03:07:13;9.40;99.90
61201;DHT22;47065;52.898;6.992;2022-09-27T03:09:42;9.40;99.90
61201;DHT22;47065;52.898;6.992;2022-09-27T03:12:09;9.30;99.90
61201;DHT22;47065;52.898;6.992;2022-09-27T03:14:35;9.30;99.90
61201;DHT22;47065;52.898;6.992;2022-09-27T03:17:00;9.30;99.90
61201;DHT22;47065;52.898;6.992;2022-09-27T03:19:26;9.30;99.90
61201;DHT22;47065;52.898;6.992;2022-09-27T03:21:54;9.30;99.90
61201;DHT22;47065;52.898;6.992;2022-09-27T03:24:20;9.30;99.90
61201;DHT22;47065;52.898;6.992;2022-09-27T03:26:46;9.20;99.90
61201;DHT22;47065;52.898;6.992;2022-09-27T03:29:17;9.20;99.90
61201;DHT22;47065;52.898;6.992;2022-09-27T03:31:43;9.30;99.90
61201;DHT22;47065;52.898;6.992;2022-09-27T03:34:09;9.20;99.90
61201;DHT22;47065;52.898;6.992;2022-09-27T03:36:52;9.10;99.90
61201;DHT22;47065;52.898;6.992;2022-09-27T03:39:18;9.10;99.90
61201;DHT22;47065;52.898;6.992;2022-09-27T03:41:44;9.10;99.90
61201;DHT22;47065;52.898;6.992;2022-09-27T03:44:09;9.10;99.90
61201;DHT22;47065;52.898;6.992;2022-09-27T03:46:35;9.10;99.90
61201;DHT22;47065;52.898;6.992;2022-09-27T03:49:04;9.00;99.90
61201;DHT22;47065;52.898;6.992;2022-09-27T03:51:29;9.00;99.90
61201;DHT22;47065;52.898;6.992;2022-09-27T03:53:55;9.00;99.90
61201;DHT22;47065;52.898;6.992;2022-09-27T03:56:21;9.00;99.90
61201;DHT22;47065;52.898;6.992;2022-09-27T03:58:47;8.90;99.90
61201;DHT22;47065;52.898;6.992;2022-09-27T04:01:13;8.90;99.90
61201;DHT22;47065;52.898;6.992;2022-09-27T04:03:39;8.90;99.90
61201;DHT22;47065;52.898;6.992;2022-09-27T04:06:05;8.90;99.90
61201;DHT22;47065;52.898;6.992;2022-09-27T04:08:30;8.90;99.90
61201;DHT22;47065;52.898;6.992;2022-09-27T04:10:56;8.80;99.90
61201;DHT22;47065;52.898;6.992;2022-09-27T04:13:22;8.80;99.90
61201;DHT22;47065;52.898;6.992;2022-09-27T04:15:48;8.80;99.90
61201;DHT22;47065;52.898;6.992;2022-09-27T04:18:14;8.80;99.90
61201;DHT22;47065;52.898;6.992;2022-09-27T04:20:40;8.80;99.90
61201;DHT22;47065;52.898;6.992;2022-09-27T04:23:06;8.80;99.90
61201;DHT22;47065;52.898;6.992;2022-09-27T04:25:32;8.80;99.90
61201;DHT22;47065;52.898;6.992;2022-09-27T04:27:58;8.80;99.90
61201;DHT22;47065;52.898;6.992;2022-09-27T04:30:24;8.70;99.90
61201;DHT22;47065;52.898;6.992;2022-09-27T04:32:51;8.70;99.90
61201;DHT22;47065;52.898;6.992;2022-09-27T04:35:17;8.80;99.90
61201;DHT22;47065;52.898;6.992;2022-09-27T04:38:10;8.70;99.90
61201;DHT22;47065;52.898;6.992;2022-09-27T04:40:37;8.70;99.90
61201;DHT22;47065;52.898;6.992;2022-09-27T04:43:03;8.70;99.90
61201;DHT22;47065;52.898;6.992;2022-09-27T04:45:40;8.70;99.90
61201;DHT22;47065;52.898;6.992;2022-09-27T04:48:15;8.70;99.90
61201;DHT22;47065;52.898;6.992;2022-09-27T04:50:41;8.70;99.90
61201;DHT22;47065;52.898;6.992;2022-09-27T04:53:06;8.70;99.90
61201;DHT22;47065;52.898;6.992;2022-09-27T04:55:33;8.70;99.90
61201;DHT22;47065;52.898;6.992;2022-09-27T04:57:58;8.70;99.90
61201;DHT22;47065;52.898;6.992;2022-09-27T05:00:26;8.70;99.90
61201;DHT22;47065;52.898;6.992;2022-09-27T05:02:52;8.80;99.90
61201;DHT22;47065;52.898;6.992;2022-09-27T05:05:18;8.80;99.90
61201;DHT22;47065;52.898;6.992;2022-09-27T05:07:44;8.70;99.90
61201;DHT22;47065;52.898;6.992;2022-09-27T05:10:09;8.70;99.90
61201;DHT22;47065;52.898;6.992;2022-09-27T05:12:35;8.80;99.90
61201;DHT22;47065;52.898;6.992;2022-09-27T05:15:01;8.70;99.90
61201;DHT22;47065;52.898;6.992;2022-09-27T05:17:27;8.70;99.90
61201;DHT22;47065;52.898;6.992;2022-09-27T05:19:53;8.80;99.90
61201;DHT22;47065;52.898;6.992;2022-09-27T05:22:19;8.80;99.90
61201;DHT22;47065;52.898;6.992;2022-09-27T05:24:44;8.80;99.90
61201;DHT22;47065;52.898;6.992;2022-09-27T05:27:13;8.80;99.90
61201;DHT22;47065;52.898;6.992;2022-09-27T05:29:43;8.80;99.90
61201;DHT22;47065;52.898;6.992;2022-09-27T05:32:08;8.80;99.90
61201;DHT22;47065;52.898;6.992;2022-09-27T05:34:34;8.90;99.90
61201;DHT22;47065;52.898;6.992;2022-09-27T05:37:00;8.90;99.90
61201;DHT22;47065;52.898;6.992;2022-09-27T05:39:25;8.90;99.90
61201;DHT22;47065;52.898;6.992;2022-09-27T05:41:51;8.90;99.90
61201;DHT22;47065;52.898;6.992;2022-09-27T05:44:19;8.90;99.90
61201;DHT22;47065;52.898;6.992;2022-09-27T05:46:44;8.90;99.90
61201;DHT22;47065;52.898;6.992;2022-09-27T05:49:10;8.90;99.90
61201;DHT22;47065;52.898;6.992;2022-09-27T05:51:36;8.90;99.90
61201;DHT22;47065;52.898;6.992;2022-09-27T05:54:02;8.90;99.90
61201;DHT22;47065;52.898;6.992;2022-09-27T05:56:28;8.90;99.90
61201;DHT22;47065;52.898;6.992;2022-09-27T05:58:54;8.90;99.90
61201;DHT22;47065;52.898;6.992;2022-09-27T06:01:19;8.90;99.90
61201;DHT22;47065;52.898;6.992;2022-09-27T06:03:45;8.90;99.90
61201;DHT22;47065;52.898;6.992;2022-09-27T06:06:12;8.90;99.90
61201;DHT22;47065;52.898;6.992;2022-09-27T06:08:44;8.90;99.90
61201;DHT22;47065;52.898;6.992;2022-09-27T06:11:12;8.90;99.90
61201;DHT22;47065;52.898;6.992;2022-09-27T06:13:38;8.90;99.90
61201;DHT22;47065;52.898;6.992;2022-09-27T06:16:05;8.80;99.90
61201;DHT22;47065;52.898;6.992;2022-09-27T06:18:31;8.90;99.90
61201;DHT22;47065;52.898;6.992;2022-09-27T06:21:04;8.90;99.90
61201;DHT22;47065;52.898;6.992;2022-09-27T06:23:31;8.90;99.90
61201;DHT22;47065;52.898;6.992;2022-09-27T06:26:04;8.90;99.90
61201;DHT22;47065;52.898;6.992;2022-09-27T06:28:31;8.90;99.90
61201;DHT22;47065;52.898;6.992;2022-09-27T06:30:58;9.00;99.90
61201;DHT22;47065;52.898;6.992;2022-09-27T06:33:26;8.90;99.90
61201;DHT22;47065;52.898;6.992;2022-09-27T06:35:52;9.00;99.90
61201;DHT22;47065;52.898;6.992;2022-09-27T06:38:19;9.10;99.90
61201;DHT22;47065;52.898;6.992;2022-09-27T06:40:48;9.10;99.90
61201;DHT22;47065;52.898;6.992;2022-09-27T06:43:16;9.10;99.90
61201;DHT22;47065;52.898;6.992;2022-09-27T06:45:42;9.20;99.90
61201;DHT22;47065;52.898;6.992;2022-09-27T06:48:09;9.20;99.90
61201;DHT22;47065;52.898;6.992;2022-09-27T06:50:38;9.20;99.90
61201;DHT22;47065;52.898;6.992;2022-09-27T06:53:05;9.20;99.90
61201;DHT22;47065;52.898;6.992;2022-09-27T06:55:32;9.20;99.90
61201;DHT22;47065;52.898;6.992;2022-09-27T06:57:59;9.20;99.90
61201;DHT22;47065;52.898;6.992;2022-09-27T07:00:44;9.20;99.90
61201;DHT22;47065;52.898;6.992;2022-09-27T07:03:12;9.20;99.90
61201;DHT22;47065;52.898;6.992;2022-09-27T07:05:39;9.30;99.90
61201;DHT22;47065;52.898;6.992;2022-09-27T07:08:09;9.30;99.90
61201;DHT22;47065;52.898;6.992;2022-09-27T07:10:37;9.30;99.90
61201;DHT22;47065;52.898;6.992;2022-09-27T07:13:08;9.30;99.90
61201;DHT22;47065;52.898;6.992;2022-09-27T07:15:39;9.30;99.90
61201;DHT22;47065;52.898;6.992;2022-09-27T07:18:07;9.30;99.90
61201;DHT22;47065;52.898;6.992;2022-09-27T07:20:34;9.30;99.90
61201;DHT22;47065;52.898;6.992;2022-09-27T07:23:02;9.40;99.90
61201;DHT22;47065;52.898;6.992;2022-09-27T07:25:29;9.40;99.90
61201;DHT22;47065;52.898;6.992;2022-09-27T07:28:00;9.40;99.90
61201;DHT22;47065;52.898;6.992;2022-09-27T07:30:26;9.40;99.90
61201;DHT22;47065;52.898;6.992;2022-09-27T07:32:57;9.50;99.90
61201;DHT22;47065;52.898;6.992;2022-09-27T07:35:23;9.40;99.90
61201;DHT22;47065;52.898;6.992;2022-09-27T07:37:49;9.40;99.90
61201;DHT22;47065;52.898;6.992;2022-09-27T07:40:16;9.60;99.90
61201;DHT22;47065;52.898;6.992;2022-09-27T07:42:43;9.60;99.90
61201;DHT22;47065;52.898;6.992;2022-09-27T07:45:09;9.70;99.90
61201;DHT22;47065;52.898;6.992;2022-09-27T07:47:40;9.80;99.90
61201;DHT22;47065;52.898;6.992;2022-09-27T07:50:08;10.00;99.90
61201;DHT22;47065;52.898;6.992;2022-09-27T07:52:45;10.10;99.90
61201;DHT22;47065;52.898;6.992;2022-09-27T07:55:12;10.30;99.90
61201;DHT22;47065;52.898;6.992;2022-09-27T07:57:39;10.40;99.90
61201;DHT22;47065;52.898;6.992;2022-09-27T08:00:08;10.50;99.90
61201;DHT22;47065;52.898;6.992;2022-09-27T08:02:34;10.70;99.90
61201;DHT22;47065;52.898;6.992;2022-09-27T08:05:00;10.80;99.90
61201;DHT22;47065;52.898;6.992;2022-09-27T08:07:27;10.80;99.90
61201;DHT22;47065;52.898;6.992;2022-09-27T08:09:53;10.90;99.90
61201;DHT22;47065;52.898;6.992;2022-09-27T08:12:18;11.00;99.90
61201;DHT22;47065;52.898;6.992;2022-09-27T08:14:49;11.20;99.90
61201;DHT22;47065;52.898;6.992;2022-09-27T08:17:17;11.30;99.90
61201;DHT22;47065;52.898;6.992;2022-09-27T08:19:44;11.40;99.90
61201;DHT22;47065;52.898;6.992;2022-09-27T08:22:13;11.50;99.90
61201;DHT22;47065;52.898;6.992;2022-09-27T08:24:39;11.50;99.90
61201;DHT22;47065;52.898;6.992;2022-09-27T08:27:05;11.50;99.90
61201;DHT22;47065;52.898;6.992;2022-09-27T08:29:36;11.60;99.90
61201;DHT22;47065;52.898;6.992;2022-09-27T08:32:02;11.50;99.90
61201;DHT22;47065;52.898;6.992;2022-09-27T08:34:28;11.60;99.90
61201;DHT22;47065;52.898;6.992;2022-09-27T08:36:54;11.60;99.90
61201;DHT22;47065;52.898;6.992;2022-09-27T08:39:22;11.50;99.90
61201;DHT22;47065;52.898;6.992;2022-09-27T08:42:09;11.50;99.90
61201;DHT22;47065;52.898;6.992;2022-09-27T08:47:51;11.40;99.90
61201;DHT22;47065;52.898;6.992;2022-09-27T08:50:28;11.30;99.90
61201;DHT22;47065;52.898;6.992;2022-09-27T08:53:13;11.40;99.90
61201;DHT22;47065;52.898;6.992;2022-09-27T08:55:56;11.70;99.90
61201;DHT22;47065;52.898;6.992;2022-09-27T08:58:41;12.40;99.90
61201;DHT22;47065;52.898;6.992;2022-09-27T09:01:14;13.00;99.90
61201;DHT22;47065;52.898;6.992;2022-09-27T09:03:46;14.00;99.90
61201;DHT22;47065;52.898;6.992;2022-09-27T09:06:27;14.90;99.90
61201;DHT22;47065;52.898;6.992;2022-09-27T09:15:09;15.90;99.90
61201;DHT22;47065;52.898;6.992;2022-09-27T09:36:46;16.10;99.90
61201;DHT22;47065;52.898;6.992;2022-09-27T09:42:32;15.70;99.90
61201;DHT22;47065;52.898;6.992;2022-09-27T09:44:51;15.50;99.90
61201;DHT22;47065;52.898;6.992;2022-09-27T09:47:31;15.10;99.90
61201;DHT22;47065;52.898;6.992;2022-09-27T09:50:04;15.00;99.90
61201;DHT22;47065;52.898;6.992;2022-09-27T09:52:39;15.00;99.90
61201;DHT22;47065;52.898;6.992;2022-09-27T09:55:18;15.00;99.90
61201;DHT22;47065;52.898;6.992;2022-09-27T10:00:45;15.00;99.90
61201;DHT22;47065;52.898;6.992;2022-09-27T10:03:11;14.80;99.90
61201;DHT22;47065;52.898;6.992;2022-09-27T10:05:37;14.60;99.90
61201;DHT22;47065;52.898;6.992;2022-09-27T10:08:14;14.40;99.90
61201;DHT22;47065;52.898;6.992;2022-09-27T10:10:41;14.30;99.90
61201;DHT22;47065;52.898;6.992;2022-09-27T10:13:20;14.20;99.90
61201;DHT22;47065;52.898;6.992;2022-09-27T10:16:06;14.00;99.90
61201;DHT22;47065;52.898;6.992;2022-09-27T10:18:38;13.90;99.90
61201;DHT22;47065;52.898;6.992;2022-09-27T10:21:12;13.70;99.90
61201;DHT22;47065;52.898;6.992;2022-09-27T10:24:19;13.60;99.90
61201;DHT22;47065;52.898;6.992;2022-09-27T10:26:46;13.40;99.90
61201;DHT22;47065;52.898;6.992;2022-09-27T10:29:24;13.30;99.90
61201;DHT22;47065;52.898;6.992;2022-09-27T10:31:53;13.20;99.90
61201;DHT22;47065;52.898;6.992;2022-09-27T10:34:24;13.10;99.90
61201;DHT22;47065;52.898;6.992;2022-09-27T10:37:02;13.00;99.90
61201;DHT22;47065;52.898;6.992;2022-09-27T10:39:29;13.00;99.90
61201;DHT22;47065;52.898;6.992;2022-09-27T10:41:55;12.90;99.90
61201;DHT22;47065;52.898;6.992;2022-09-27T10:44:29;12.90;99.90
61201;DHT22;47065;52.898;6.992;2022-09-27T10:47:05;12.90;99.90
61201;DHT22;47065;52.898;6.992;2022-09-27T10:49:34;12.80;99.90
61201;DHT22;47065;52.898;6.992;2022-09-27T10:52:13;12.90;99.90
61201;DHT22;47065;52.898;6.992;2022-09-27T10:54:41;12.70;99.90
61201;DHT22;47065;52.898;6.992;2022-09-27T10:59:41;12.50;99.90
61201;DHT22;47065;52.898;6.992;2022-09-27T11:02:27;12.50;99.90
61201;DHT22;47065;52.898;6.992;2022-09-27T11:07:28;12.20;99.90
61201;DHT22;47065;52.898;6.992;2022-09-27T11:09:56;11.90;99.90
61201;DHT22;47065;52.898;6.992;2022-09-27T11:12:29;11.60;99.90
61201;DHT22;47065;52.898;6.992;2022-09-27T11:15:12;11.30;99.90
61201;DHT22;47065;52.898;6.992;2022-09-27T11:17:56;11.00;99.90
61201;DHT22;47065;52.898;6.992;2022-09-27T11:20:41;10.60;99.90
61201;DHT22;47065;52.898;6.992;2022-09-27T11:23:29;10.30;99.90
61201;DHT22;47065;52.898;6.992;2022-09-27T11:33:56;9.90;99.90
61201;DHT22;47065;52.898;6.992;2022-09-27T11:47:40;10.20;99.90
61201;DHT22;47065;52.898;6.992;2022-09-27T11:50:22;10.50;99.90
61201;DHT22;47065;52.898;6.992;2022-09-27T12:01:05;10.60;99.90
61201;DHT22;47065;52.898;6.992;2022-09-27T12:03:55;10.70;99.90
61201;DHT22;47065;52.898;6.992;2022-09-27T12:06:44;10.90;99.90
61201;DHT22;47065;52.898;6.992;2022-09-27T12:09:21;10.90;99.90
61201;DHT22;47065;52.898;6.992;2022-09-27T12:12:16;11.00;99.90
61201;DHT22;47065;52.898;6.992;2022-09-27T12:14:52;10.90;99.90
61201;DHT22;47065;52.898;6.992;2022-09-27T12:17:25;10.80;99.90
61201;DHT22;47065;52.898;6.992;2022-09-27T12:19:54;10.70;99.90
61201;DHT22;47065;52.898;6.992;2022-09-27T12:25:38;10.50;99.90
61201;DHT22;47065;52.898;6.992;2022-09-27T12:28:35;10.50;99.90
61201;DHT22;47065;52.898;6.992;2022-09-27T12:31:22;10.50;99.90
61201;DHT22;47065;52.898;6.992;2022-09-27T12:34:16;10.50;99.90
61201;DHT22;47065;52.898;6.992;2022-09-27T12:36:50;10.50;99.90
61201;DHT22;47065;52.898;6.992;2022-09-27T12:39:49;10.50;99.90
61201;DHT22;47065;52.898;6.992;2022-09-27T12:42:24;10.50;99.90
61201;DHT22;47065;52.898;6.992;2022-09-27T12:44:52;10.60;99.90
61201;DHT22;47065;52.898;6.992;2022-09-27T12:56:07;10.90;99.90
61201;DHT22;47065;52.898;6.992;2022-09-27T12:58:48;11.10;99.90
61201;DHT22;47065;52.898;6.992;2022-09-27T13:04:24;11.50;99.90
61201;DHT22;47065;52.898;6.992;2022-09-27T13:07:07;11.70;99.90
61201;DHT22;47065;52.898;6.992;2022-09-27T13:12:29;11.90;99.90
61201;DHT22;47065;52.898;6.992;2022-09-27T13:15:02;12.00;99.90
61201;DHT22;47065;52.898;6.992;2022-09-27T13:22:57;12.20;99.90
61201;DHT22;47065;52.898;6.992;2022-09-27T13:31:07;12.20;99.90
61201;DHT22;47065;52.898;6.992;2022-09-27T13:33:48;12.30;99.90
61201;DHT22;47065;52.898;6.992;2022-09-27T13:44:20;11.80;99.90
61201;DHT22;47065;52.898;6.992;2022-09-27T13:46:59;11.60;99.90
61201;DHT22;47065;52.898;6.992;2022-09-27T13:49:36;11.30;99.90
61201;DHT22;47065;52.898;6.992;2022-09-27T13:52:13;11.10;99.90
61201;DHT22;47065;52.898;6.992;2022-09-27T13:54:54;11.00;99.90
61201;DHT22;47065;52.898;6.992;2022-09-27T14:00:57;10.90;99.90
61201;DHT22;47065;52.898;6.992;2022-09-27T14:03:31;11.00;99.90
61201;DHT22;47065;52.898;6.992;2022-09-27T14:06:06;11.10;99.90
61201;DHT22;47065;52.898;6.992;2022-09-27T14:08:45;11.10;99.90
61201;DHT22;47065;52.898;6.992;2022-09-27T14:11:29;11.10;99.90
61201;DHT22;47065;52.898;6.992;2022-09-27T14:13:57;11.00;99.90
61201;DHT22;47065;52.898;6.992;2022-09-27T14:16:39;11.00;99.90
61201;DHT22;47065;52.898;6.992;2022-09-27T14:19:15;11.00;99.90
61201;DHT22;47065;52.898;6.992;2022-09-27T14:21:42;10.90;99.90
61201;DHT22;47065;52.898;6.992;2022-09-27T14:27:13;10.90;99.90
61201;DHT22;47065;52.898;6.992;2022-09-27T14:30:13;10.90;99.90
61201;DHT22;47065;52.898;6.992;2022-09-27T14:32:48;10.80;99.90
61201;DHT22;47065;52.898;6.992;2022-09-27T14:35:17;10.70;99.90
61201;DHT22;47065;52.898;6.992;2022-09-27T14:38:07;10.70;99.90
61201;DHT22;47065;52.898;6.992;2022-09-27T14:40:43;10.40;99.90
61201;DHT22;47065;52.898;6.992;2022-09-27T14:43:18;10.10;99.90
61201;DHT22;47065;52.898;6.992;2022-09-27T14:45:47;9.80;99.90
61201;DHT22;47065;52.898;6.992;2022-09-27T14:48:34;9.50;99.90
61201;DHT22;47065;52.898;6.992;2022-09-27T14:56:06;9.30;99.90
61201;DHT22;47065;52.898;6.992;2022-09-27T14:58:34;9.30;99.90
61201;DHT22;47065;52.898;6.992;2022-09-27T15:01:00;9.30;99.90
61201;DHT22;47065;52.898;6.992;2022-09-27T15:03:30;9.30;99.90
61201;DHT22;47065;52.898;6.992;2022-09-27T15:05:58;9.30;99.90
61201;DHT22;47065;52.898;6.992;2022-09-27T15:08:26;9.30;99.90
61201;DHT22;47065;52.898;6.992;2022-09-27T15:10:55;9.40;99.90
61201;DHT22;47065;52.898;6.992;2022-09-27T15:13:22;9.30;99.90
61201;DHT22;47065;52.898;6.992;2022-09-27T15:15:52;9.40;99.90
61201;DHT22;47065;52.898;6.992;2022-09-27T15:18:47;9.40;99.90
61201;DHT22;47065;52.898;6.992;2022-09-27T15:21:25;9.40;99.90
61201;DHT22;47065;52.898;6.992;2022-09-27T15:23:52;9.50;99.90
61201;DHT22;47065;52.898;6.992;2022-09-27T15:26:26;9.40;99.90
61201;DHT22;47065;52.898;6.992;2022-09-27T15:28:59;9.40;99.90
61201;DHT22;47065;52.898;6.992;2022-09-27T15:31:35;9.40;99.90
61201;DHT22;47065;52.898;6.992;2022-09-27T15:34:02;9.50;99.90
61201;DHT22;47065;52.898;6.992;2022-09-27T15:39:25;9.50;99.90
61201;DHT22;47065;52.898;6.992;2022-09-27T15:42:06;9.50;99.90
61201;DHT22;47065;52.898;6.992;2022-09-27T15:47:00;9.60;99.90
61201;DHT22;47065;52.898;6.992;2022-09-27T15:49:30;9.60;99.90
61201;DHT22;47065;52.898;6.992;2022-09-27T15:51:59;9.60;99.90
61201;DHT22;47065;52.898;6.992;2022-09-27T15:54:30;9.70;99.90
61201;DHT22;47065;52.898;6.992;2022-09-27T15:57:01;9.70;99.90
61201;DHT22;47065;52.898;6.992;2022-09-27T15:59:31;9.70;99.90
61201;DHT22;47065;52.898;6.992;2022-09-27T16:02:16;9.70;99.90
61201;DHT22;47065;52.898;6.992;2022-09-27T16:04:45;9.80;99.90
61201;DHT22;47065;52.898;6.992;2022-09-27T16:07:13;9.80;99.90
61201;DHT22;47065;52.898;6.992;2022-09-27T16:09:41;9.80;99.90
61201;DHT22;47065;52.898;6.992;2022-09-27T16:12:09;9.80;99.90
61201;DHT22;47065;52.898;6.992;2022-09-27T16:14:35;9.80;99.90
61201;DHT22;47065;52.898;6.992;2022-09-27T16:17:00;9.80;99.90
61201;DHT22;47065;52.898;6.992;2022-09-27T16:19:26;9.80;99.90
61201;DHT22;47065;52.898;6.992;2022-09-27T16:21:52;9.80;99.90
61201;DHT22;47065;52.898;6.992;2022-09-27T16:24:17;9.80;99.90
61201;DHT22;47065;52.898;6.992;2022-09-27T16:26:43;9.80;99.90
61201;DHT22;47065;52.898;6.992;2022-09-27T16:29:13;9.70;99.90
61201;DHT22;47065;52.898;6.992;2022-09-27T16:31:40;9.70;99.90
61201;DHT22;47065;52.898;6.992;2022-09-27T16:34:10;9.70;99.90
61201;DHT22;47065;52.898;6.992;2022-09-27T16:36:37;9.70;99.90
61201;DHT22;47065;52.898;6.992;2022-09-27T16:39:05;9.70;99.90
61201;DHT22;47065;52.898;6.992;2022-09-27T16:41:34;9.70;99.90
61201;DHT22;47065;52.898;6.992;2022-09-27T16:44:09;9.70;99.90
61201;DHT22;47065;52.898;6.992;2022-09-27T16:46:38;9.70;99.90
61201;DHT22;47065;52.898;6.992;2022-09-27T16:49:04;9.70;99.90
61201;DHT22;47065;52.898;6.992;2022-09-27T16:51:52;9.70;99.90
61201;DHT22;47065;52.898;6.992;2022-09-27T16:54:27;9.70;99.90
61201;DHT22;47065;52.898;6.992;2022-09-27T16:56:57;9.60;99.90
61201;DHT22;47065;52.898;6.992;2022-09-27T16:59:23;9.70;99.90
61201;DHT22;47065;52.898;6.992;2022-09-27T17:01:50;9.70;99.90
61201;DHT22;47065;52.898;6.992;2022-09-27T17:04:16;9.70;99.90
61201;DHT22;47065;52.898;6.992;2022-09-27T17:06:41;9.70;99.90
61201;DHT22;47065;52.898;6.992;2022-09-27T17:09:07;9.70;99.90
61201;DHT22;47065;52.898;6.992;2022-09-27T17:11:33;9.60;99.90
61201;DHT22;47065;52.898;6.992;2022-09-27T17:13:59;9.60;99.90
61201;DHT22;47065;52.898;6.992;2022-09-27T17:16:25;9.60;99.90
61201;DHT22;47065;52.898;6.992;2022-09-27T17:18:51;9.60;99.90
61201;DHT22;47065;52.898;6.992;2022-09-27T17:21:16;9.60;99.90
61201;DHT22;47065;52.898;6.992;2022-09-27T17:23:42;9.60;99.90
61201;DHT22;47065;52.898;6.992;2022-09-27T17:26:15;9.60;99.90
61201;DHT22;47065;52.898;6.992;2022-09-27T17:28:41;9.50;99.90
61201;DHT22;47065;52.898;6.992;2022-09-27T17:31:14;9.60;99.90
61201;DHT22;47065;52.898;6.992;2022-09-27T17:33:47;9.50;99.90
61201;DHT22;47065;52.898;6.992;2022-09-27T17:36:33;9.50;99.90
61201;DHT22;47065;52.898;6.992;2022-09-27T17:39:32;9.50;99.90
61201;DHT22;47065;52.898;6.992;2022-09-27T17:42:03;9.40;99.90
61201;DHT22;47065;52.898;6.992;2022-09-27T17:44:42;9.40;99.90
61201;DHT22;47065;52.898;6.992;2022-09-27T17:47:23;9.40;99.90
61201;DHT22;47065;52.898;6.992;2022-09-27T17:50:30;9.40;99.90
61201;DHT22;47065;52.898;6.992;2022-09-27T17:53:04;9.40;99.90
61201;DHT22;47065;52.898;6.992;2022-09-27T17:55:36;9.30;99.90
61201;DHT22;47065;52.898;6.992;2022-09-27T18:01:01;9.30;99.90
61201;DHT22;47065;52.898;6.992;2022-09-27T18:03:28;9.30;99.90
61201;DHT22;47065;52.898;6.992;2022-09-27T18:06:18;9.30;99.90
61201;DHT22;47065;52.898;6.992;2022-09-27T18:09:13;9.30;99.90
61201;DHT22;47065;52.898;6.992;2022-09-27T18:12:05;9.30;99.90
61201;DHT22;47065;52.898;6.992;2022-09-27T18:15:06;9.20;99.90
61201;DHT22;47065;52.898;6.992;2022-09-27T18:17:43;9.30;99.90
61201;DHT22;47065;52.898;6.992;2022-09-27T18:23:18;9.20;99.90
61201;DHT22;47065;52.898;6.992;2022-09-27T18:25:59;9.20;99.90
61201;DHT22;47065;52.898;6.992;2022-09-27T18:32:29;9.10;99.90
61201;DHT22;47065;52.898;6.992;2022-09-27T18:35:01;9.10;99.90
61201;DHT22;47065;52.898;6.992;2022-09-27T18:37:47;9.10;99.90
61201;DHT22;47065;52.898;6.992;2022-09-27T18:44:18;9.00;99.90
61201;DHT22;47065;52.898;6.992;2022-09-27T18:46:56;8.90;99.90
61201;DHT22;47065;52.898;6.992;2022-09-27T18:49:49;8.90;99.90
61201;DHT22;47065;52.898;6.992;2022-09-27T18:55:39;8.80;99.90
61201;DHT22;47065;52.898;6.992;2022-09-27T18:58:11;8.80;99.90
61201;DHT22;47065;52.898;6.992;2022-09-27T19:01:04;8.80;99.90
61201;DHT22;47065;52.898;6.992;2022-09-27T19:03:33;8.70;99.90
61201;DHT22;47065;52.898;6.992;2022-09-27T19:06:22;8.80;99.90